Time;durP1;ratioP1;P1;durP2;ratioP2;P2;SDS_P1;SDS_P2;PMS_P1;PMS_P2;Temp;Humidity;BMP_temperature;BMP_pressure;BME280_temperature;BME280_humidity;BME280_pressure;Samples;Min_cycle;Max_cycle;Signal;HPM_P1;HPM_P2
2024/01/19 00:00:44;;;;;;;8.35;5.13;;;;;;;;;;4991902;28;20121;-80
2024/01/19 00:03:09;;;;;;;10.43;5.03;;;;;;;;;;4975666;28;20034;-79
2024/01/19 00:05:35;;;;;;;10.30;5.93;;;;;;;;;;4991761;28;20545;-78
2024/01/19 00:08:01;;;;;;;8.90;4.72;;;;;;;;;;4991041;28;20037;-79
2024/01/19 00:10:27;;;;;;;8.75;5.38;;;;;;;;;;4993248;28;20367;-80
2024/01/19 00:12:52;;;;;;;11.38;5.80;;;;;;;;;;4992435;28;20057;-80
2024/01/19 00:15:17;;;;;;;10.38;5.22;;;;;;;;;;4980033;28;20034;-80
2024/01/19 00:17:43;;;;;;;11.95;5.65;;;;;;;;;;4990533;28;20508;-80
2024/01/19 00:20:09;;;;;;;8.75;5.20;;;;;;;;;;4989969;28;20496;-80
2024/01/19 00:22:34;;;;;;;12.02;6.22;;;;;;;;;;5005398;28;20466;-80
2024/01/19 00:25:00;;;;;;;11.82;6.45;;;;;;;;;;4992781;28;20052;-80
2024/01/19 00:27:25;;;;;;;12.45;6.60;;;;;;;;;;4991280;28;20800;-79
2024/01/19 00:29:51;;;;;;;11.20;6.32;;;;;;;;;;4979292;28;20048;-79
2024/01/19 00:32:16;;;;;;;;;;;;;;;;;;4994411;28;20118;-79
2024/01/19 00:34:41;;;;;;;11.50;5.80;;;;;;;;;;5013465;28;19917;-80
2024/01/19 00:37:07;;;;;;;11.48;6.35;;;;;;;;;;4999250;28;20037;-80
2024/01/19 00:39:33;;;;;;;10.93;6.35;;;;;;;;;;4996241;28;20033;-80
2024/01/19 00:41:58;;;;;;;11.40;6.55;;;;;;;;;;4990780;28;20047;-80
2024/01/19 00:44:23;;;;;;;15.55;7.05;;;;;;;;;;4990964;28;20446;-80
2024/01/19 00:46:50;;;;;;;12.32;6.65;;;;;;;;;;5002491;28;20086;-80
2024/01/19 00:49:16;;;;;;;12.65;6.70;;;;;;;;;;4975225;28;20041;-80
2024/01/19 00:51:41;;;;;;;12.68;6.40;;;;;;;;;;4993264;28;20053;-79
2024/01/19 00:54:07;;;;;;;11.68;6.60;;;;;;;;;;4988359;28;20030;-80
2024/01/19 00:56:33;;;;;;;11.18;6.28;;;;;;;;;;4981117;28;20049;-80
2024/01/19 00:58:58;;;;;;;12.65;6.93;;;;;;;;;;4996929;28;20479;-80
2024/01/19 01:01:24;;;;;;;;;;;;;;;;;;4997074;28;20038;-80
2024/01/19 01:03:49;;;;;;;13.40;6.80;;;;;;;;;;4993655;28;19914;-80
2024/01/19 01:06:14;;;;;;;;;;;;;;;;;;4994201;28;20044;-80
2024/01/19 01:08:40;;;;;;;14.15;7.55;;;;;;;;;;4994036;28;19914;-80
2024/01/19 01:11:05;;;;;;;13.77;6.57;;;;;;;;;;5000794;28;20074;-80
2024/01/19 01:13:31;;;;;;;;;;;;;;;;;;4995256;28;20030;-80
2024/01/19 01:15:56;;;;;;;13.05;6.57;;;;;;;;;;4993400;28;19909;-80
2024/01/19 01:18:22;;;;;;;13.48;5.85;;;;;;;;;;4978215;28;20082;-80
2024/01/19 01:20:48;;;;;;;12.57;6.25;;;;;;;;;;4996086;28;20141;-80
2024/01/19 01:23:14;;;;;;;11.40;6.22;;;;;;;;;;4995395;28;20042;-80
2024/01/19 01:25:39;;;;;;;15.05;7.47;;;;;;;;;;4977065;28;20382;-80
2024/01/19 01:28:04;;;;;;;13.02;6.72;;;;;;;;;;4978135;28;20073;-79
2024/01/19 01:30:30;;;;;;;16.05;7.10;;;;;;;;;;4993120;28;20038;-78
2024/01/19 01:32:55;;;;;;;;;;;;;;;;;;4994451;28;20041;-78
2024/01/19 01:35:21;;;;;;;12.40;6.10;;;;;;;;;;4994339;28;20264;-79
2024/01/19 01:37:46;;;;;;;13.95;6.47;;;;;;;;;;4994277;28;20150;-79
2024/01/19 01:40:12;;;;;;;14.20;7.15;;;;;;;;;;4993757;28;20081;-79
2024/01/19 01:42:37;;;;;;;14.40;6.68;;;;;;;;;;4993758;28;20057;-79
2024/01/19 01:45:04;;;;;;;;;;;;;;;;;;4995145;28;20026;-79
2024/01/19 01:47:29;;;;;;;13.57;6.70;;;;;;;;;;4995385;28;19999;-80
2024/01/19 01:49:54;;;;;;;15.88;7.82;;;;;;;;;;4977605;28;20093;-80
2024/01/19 01:52:20;;;;;;;14.38;6.93;;;;;;;;;;4993907;28;20029;-79
2024/01/19 01:54:45;;;;;;;;;;;;;;;;;;4994336;28;20417;-79
2024/01/19 01:57:11;;;;;;;14.30;7.32;;;;;;;;;;4994705;28;19936;-78
2024/01/19 01:59:36;;;;;;;17.63;7.90;;;;;;;;;;4994350;28;20409;-79
2024/01/19 02:02:02;;;;;;;;;;;;;;;;;;4996902;28;20045;-79
2024/01/19 02:04:28;;;;;;;15.60;7.50;;;;;;;;;;4975428;28;19921;-79
2024/01/19 02:06:53;;;;;;;12.05;6.57;;;;;;;;;;4992796;28;20124;-80
2024/01/19 02:09:19;;;;;;;13.63;7.68;;;;;;;;;;4994699;28;20443;-80
2024/01/19 02:11:44;;;;;;;12.75;6.05;;;;;;;;;;5002349;28;20046;-80
2024/01/19 02:14:10;;;;;;;;;;;;;;;;;;4997615;28;20818;-80
2024/01/19 02:16:36;;;;;;;9.50;5.47;;;;;;;;;;4992539;28;20012;-80
2024/01/19 02:19:01;;;;;;;8.93;5.95;;;;;;;;;;5002109;28;20026;-80
2024/01/19 02:21:27;;;;;;;12.32;7.70;;;;;;;;;;4959819;28;20505;-79
2024/01/19 02:24:03;;;;;;;18.65;11.30;;;;;;;;;;4975697;28;20026;-80
2024/01/19 02:26:28;;;;;;;13.75;8.05;;;;;;;;;;4989397;28;20096;-79
2024/01/19 02:28:54;;;;;;;10.20;6.70;;;;;;;;;;4992664;28;20042;-79
2024/01/19 02:31:19;;;;;;;13.70;7.68;;;;;;;;;;4992222;28;20038;-79
2024/01/19 02:33:45;;;;;;;12.43;8.20;;;;;;;;;;4992547;28;20033;-80
2024/01/19 02:36:10;;;;;;;;;;;;;;;;;;4993557;28;20100;-79
2024/01/19 02:38:36;;;;;;;12.95;7.38;;;;;;;;;;4993191;28;20360;-80
2024/01/19 02:41:01;;;;;;;9.30;5.70;;;;;;;;;;4992068;28;20093;-79
2024/01/19 02:43:27;;;;;;;12.73;8.30;;;;;;;;;;4996333;28;20116;-79
2024/01/19 02:45:52;;;;;;;13.13;8.73;;;;;;;;;;4997428;28;20045;-79
2024/01/19 02:48:18;;;;;;;13.32;8.20;;;;;;;;;;5001585;28;20601;-79
2024/01/19 02:50:43;;;;;;;14.95;8.30;;;;;;;;;;4997527;28;20046;-79
2024/01/19 02:53:08;;;;;;;19.38;9.20;;;;;;;;;;5002110;28;20105;-80
2024/01/19 02:55:34;;;;;;;22.20;11.10;;;;;;;;;;4997063;28;20061;-80
2024/01/19 02:57:59;;;;;;;30.35;14.50;;;;;;;;;;5002148;28;20105;-80
2024/01/19 03:00:25;;;;;;;30.83;14.63;;;;;;;;;;5001177;28;20045;-80
2024/01/19 03:02:50;;;;;;;29.38;13.38;;;;;;;;;;4992646;28;20113;-81
2024/01/19 03:05:16;;;;;;;27.50;12.20;;;;;;;;;;4993965;28;20088;-79
2024/01/19 03:07:41;;;;;;;28.42;14.05;;;;;;;;;;4984854;28;20050;-80
2024/01/19 03:10:07;;;;;;;30.35;14.02;;;;;;;;;;4995478;28;20038;-79
2024/01/19 03:12:32;;;;;;;31.48;14.40;;;;;;;;;;5000694;28;20035;-80
2024/01/19 03:14:58;;;;;;;24.40;12.32;;;;;;;;;;4995580;28;20029;-80
2024/01/19 03:17:23;;;;;;;29.63;12.90;;;;;;;;;;5004896;28;20111;-80
2024/01/19 03:19:49;;;;;;;32.80;15.75;;;;;;;;;;5005588;28;20038;-79
2024/01/19 03:22:14;;;;;;;;;;;;;;;;;;5007853;28;20034;-79
2024/01/19 03:24:39;;;;;;;30.83;13.93;;;;;;;;;;4995181;28;19944;-79
2024/01/19 03:27:05;;;;;;;31.65;15.35;;;;;;;;;;5009316;28;20104;-79
2024/01/19 03:29:30;;;;;;;31.17;14.00;;;;;;;;;;5006032;28;20037;-80
2024/01/19 03:31:56;;;;;;;34.13;17.08;;;;;;;;;;5008374;28;20480;-80
2024/01/19 03:34:21;;;;;;;31.92;14.88;;;;;;;;;;4987365;28;20026;-80
2024/01/19 03:36:47;;;;;;;36.17;15.77;;;;;;;;;;4999290;28;20113;-80
2024/01/19 03:39:12;;;;;;;34.38;15.48;;;;;;;;;;4974542;28;20062;-80
2024/01/19 03:41:38;;;;;;;34.97;17.52;;;;;;;;;;5000757;28;20080;-79
2024/01/19 03:44:03;;;;;;;31.25;15.95;;;;;;;;;;5004717;28;20045;-80
2024/01/19 03:46:29;;;;;;;44.03;19.15;;;;;;;;;;5008090;28;20041;-80
2024/01/19 03:48:54;;;;;;;40.40;18.73;;;;;;;;;;5004157;28;20540;-80
2024/01/19 03:51:19;;;;;;;;;;;;;;;;;;4991629;28;20038;-80
2024/01/19 03:53:45;;;;;;;36.80;15.55;;;;;;;;;;4983946;28;19920;-80
2024/01/19 03:56:10;;;;;;;38.78;19.17;;;;;;;;;;4998162;28;20068;-80
2024/01/19 03:58:36;;;;;;;36.97;18.15;;;;;;;;;;4975252;28;20030;-80
2024/01/19 04:01:03;;;;;;;36.13;19.30;;;;;;;;;;4991642;28;20034;-79
2024/01/19 04:03:29;;;;;;;38.35;18.98;;;;;;;;;;4994419;28;20041;-78
2024/01/19 04:05:54;;;;;;;37.83;18.63;;;;;;;;;;4993671;28;20034;-79
2024/01/19 04:08:20;;;;;;;37.78;19.13;;;;;;;;;;4994154;28;20057;-79
2024/01/19 04:10:45;;;;;;;35.92;18.23;;;;;;;;;;4991549;28;20079;-79
2024/01/19 04:13:11;;;;;;;35.05;17.92;;;;;;;;;;4987929;28;20030;-79
2024/01/19 04:15:36;;;;;;;39.40;18.75;;;;;;;;;;4996393;28;20030;-79
2024/01/19 04:18:02;;;;;;;39.55;18.25;;;;;;;;;;4990327;28;20053;-81
2024/01/19 04:20:27;;;;;;;;;;;;;;;;;;4992615;28;20038;-80
2024/01/19 04:22:53;;;;;;;37.58;17.23;;;;;;;;;;4996595;28;20016;-81
2024/01/19 04:25:18;;;;;;;38.05;18.30;;;;;;;;;;5000789;28;20025;-81
2024/01/19 04:27:44;;;;;;;36.40;17.67;;;;;;;;;;4982637;28;20489;-79
2024/01/19 04:30:09;;;;;;;;;;;;;;;;;;4983465;28;20489;-80
2024/01/19 04:32:35;;;;;;;33.83;16.25;;;;;;;;;;4990668;28;19914;-79
2024/01/19 04:35:00;;;;;;;;;;;;;;;;;;4983805;28;20133;-79
2024/01/19 04:37:26;;;;;;;33.63;15.48;;;;;;;;;;4992607;28;19932;-79
2024/01/19 04:39:51;;;;;;;;;;;;;;;;;;5003253;28;20458;-78
2024/01/19 04:42:16;;;;;;;37.92;17.60;;;;;;;;;;4995771;28;20016;-80
2024/01/19 04:44:42;;;;;;;;;;;;;;;;;;4996157;28;20058;-80
2024/01/19 04:47:07;;;;;;;32.28;15.38;;;;;;;;;;4999213;28;20655;-80
2024/01/19 04:49:32;;;;;;;;;;;;;;;;;;5003029;28;20670;-81
2024/01/19 04:51:58;;;;;;;32.35;15.70;;;;;;;;;;4998890;28;20483;-81
2024/01/19 04:54:23;;;;;;;;;;;;;;;;;;5001261;28;20420;-80
2024/01/19 04:56:49;;;;;;;33.65;15.07;;;;;;;;;;4997505;28;19921;-82
2024/01/19 04:59:14;;;;;;;30.92;16.05;;;;;;;;;;5001010;28;20030;-80
2024/01/19 05:01:39;;;;;;;34.45;15.73;;;;;;;;;;4979296;28;20038;-82
2024/01/19 05:04:05;;;;;;;28.08;14.75;;;;;;;;;;4990326;28;20592;-82
2024/01/19 05:06:30;;;;;;;29.63;15.55;;;;;;;;;;4996485;28;20401;-81
2024/01/19 05:08:56;;;;;;;;;;;;;;;;;;4974974;28;20498;-81
2024/01/19 05:11:21;;;;;;;28.63;13.93;;;;;;;;;;4999675;28;19917;-80
2024/01/19 05:13:47;;;;;;;27.70;15.63;;;;;;;;;;4989959;28;20577;-81
2024/01/19 05:16:12;;;;;;;30.98;16.35;;;;;;;;;;4989532;28;20041;-79
2024/01/19 05:18:38;;;;;;;29.58;15.15;;;;;;;;;;4990085;28;20031;-80
2024/01/19 05:21:03;;;;;;;;;;;;;;;;;;4996242;28;20445;-81
2024/01/19 05:23:29;;;;;;;31.80;16.80;;;;;;;;;;5002216;28;19910;-80
2024/01/19 05:25:54;;;;;;;;;;;;;;;;;;4975793;28;20054;-80
2024/01/19 05:28:20;;;;;;;29.42;15.70;;;;;;;;;;4997732;28;19921;-79
2024/01/19 05:30:45;;;;;;;29.55;16.48;;;;;;;;;;4997377;28;20512;-79
2024/01/19 05:33:11;;;;;;;32.42;15.55;;;;;;;;;;4997346;28;20090;-79
2024/01/19 05:35:36;;;;;;;;;;;;;;;;;;4999529;28;20422;-79
2024/01/19 05:38:02;;;;;;;29.05;14.70;;;;;;;;;;4996673;28;19929;-79
2024/01/19 05:40:28;;;;;;;31.27;15.70;;;;;;;;;;5001618;28;20045;-80
2024/01/19 05:42:53;;;;;;;;;;;;;;;;;;4999763;28;20038;-80
2024/01/19 05:45:19;;;;;;;30.10;14.90;;;;;;;;;;5001303;28;19924;-81
2024/01/19 05:47:44;;;;;;;30.85;16.23;;;;;;;;;;4997690;28;20023;-80
2024/01/19 05:50:10;;;;;;;26.92;15.00;;;;;;;;;;4996256;28;20045;-80
2024/01/19 05:52:35;;;;;;;;;;;;;;;;;;4997628;28;20034;-80
2024/01/19 05:55:10;;;;;;;30.63;15.38;;;;;;;;;;5002205;28;19920;-81
2024/01/19 05:57:39;;;;;;;25.42;13.70;;;;;;;;;;4998705;28;20517;-81
2024/01/19 06:00:05;;;;;;;;;;;;;;;;;;4999229;28;20045;-81
2024/01/19 06:02:50;;;;;;;29.67;14.18;;;;;;;;;;4999646;28;19920;-81
2024/01/19 06:05:17;;;;;;;24.75;12.45;;;;;;;;;;4990061;28;20125;-79
2024/01/19 06:07:53;;;;;;;25.67;14.10;;;;;;;;;;4994984;28;20037;-81
2024/01/19 06:10:18;;;;;;;;;;;;;;;;;;4995400;28;20038;-80
2024/01/19 06:12:47;;;;;;;24.55;14.10;;;;;;;;;;5001189;28;20301;-81
2024/01/19 06:15:13;;;;;;;26.85;13.48;;;;;;;;;;4990329;28;20039;-79
2024/01/19 06:17:38;;;;;;;25.77;14.25;;;;;;;;;;4991880;28;20030;-81
2024/01/19 06:20:04;;;;;;;23.70;12.38;;;;;;;;;;4991916;28;20034;-81
2024/01/19 06:22:30;;;;;;;25.98;14.27;;;;;;;;;;4975495;28;20045;-80
2024/01/19 06:25:06;;;;;;;24.38;12.48;;;;;;;;;;4992311;28;20121;-80
2024/01/19 06:27:36;;;;;;;24.13;13.00;;;;;;;;;;4992183;28;20134;-81
2024/01/19 06:30:01;;;;;;;;;;;;;;;;;;4991981;28;20157;-81
2024/01/19 06:32:29;;;;;;;24.73;13.32;;;;;;;;;;4994042;28;19940;-80
2024/01/19 06:34:57;;;;;;;20.33;11.50;;;;;;;;;;4991137;28;20061;-80
2024/01/19 06:37:22;;;;;;;;;;;;;;;;;;4976476;28;20490;-80
2024/01/19 06:39:47;;;;;;;21.80;11.57;;;;;;;;;;4992181;28;19910;-80
2024/01/19 06:42:14;;;;;;;22.85;11.52;;;;;;;;;;4991232;28;20573;-80
2024/01/19 06:44:43;;;;;;;18.92;9.93;;;;;;;;;;4991695;28;20110;-80
2024/01/19 06:47:09;;;;;;;18.55;10.98;;;;;;;;;;4991970;28;20031;-80
2024/01/19 06:49:36;;;;;;;;;;;;;;;;;;4989398;28;20037;-81
2024/01/19 06:52:04;;;;;;;19.38;11.70;;;;;;;;;;4991050;28;19918;-79
2024/01/19 06:54:30;;;;;;;20.70;11.27;;;;;;;;;;4990645;28;20026;-81
2024/01/19 06:56:56;;;;;;;21.33;12.02;;;;;;;;;;4995421;28;20490;-81
2024/01/19 06:59:21;;;;;;;;;;;;;;;;;;5001618;28;20033;-80
2024/01/19 07:01:47;;;;;;;20.23;10.85;;;;;;;;;;4997212;28;20369;-80
2024/01/19 07:04:12;;;;;;;;;;;;;;;;;;4995655;28;20102;-80
2024/01/19 07:06:37;;;;;;;21.60;11.45;;;;;;;;;;4997554;28;20153;-80
2024/01/19 07:09:03;;;;;;;;;;;;;;;;;;5002875;28;20148;-80
2024/01/19 07:11:28;;;;;;;24.15;12.55;;;;;;;;;;4999516;28;19917;-80
2024/01/19 07:13:54;;;;;;;;;;;;;;;;;;4961770;28;20023;-80
2024/01/19 07:16:19;;;;;;;22.85;11.93;;;;;;;;;;4987548;28;20056;-80
2024/01/19 07:18:45;;;;;;;21.58;12.45;;;;;;;;;;4989592;28;20045;-80
2024/01/19 07:21:10;;;;;;;;;;;;;;;;;;4991492;28;20404;-80
2024/01/19 07:23:36;;;;;;;18.35;11.80;;;;;;;;;;4991349;28;20143;-80
2024/01/19 07:26:01;;;;;;;;;;;;;;;;;;4996778;28;20023;-80
2024/01/19 07:28:26;;;;;;;19.83;11.10;;;;;;;;;;4994572;28;20008;-81
2024/01/19 07:30:52;;;;;;;19.40;11.48;;;;;;;;;;4995932;28;20034;-79
2024/01/19 07:33:17;;;;;;;22.33;12.88;;;;;;;;;;4989625;28;20034;-79
2024/01/19 07:35:43;;;;;;;21.48;11.93;;;;;;;;;;4992837;28;20134;-79
2024/01/19 07:38:08;;;;;;;20.42;12.43;;;;;;;;;;4992549;28;20064;-81
2024/01/19 07:40:34;;;;;;;;;;;;;;;;;;4994214;28;20137;-81
2024/01/19 07:42:59;;;;;;;18.98;11.40;;;;;;;;;;4990551;28;19913;-80
2024/01/19 07:45:25;;;;;;;18.02;11.20;;;;;;;;;;4988328;28;20034;-81
2024/01/19 07:47:50;;;;;;;;;;;;;;;;;;4975508;28;20493;-81
2024/01/19 07:50:16;;;;;;;19.90;11.48;;;;;;;;;;4994666;28;20020;-81
2024/01/19 07:52:41;;;;;;;19.05;11.70;;;;;;;;;;4991169;28;20030;-81
2024/01/19 07:55:07;;;;;;;19.05;10.98;;;;;;;;;;4994845;28;20084;-81
2024/01/19 07:57:32;;;;;;;19.10;12.27;;;;;;;;;;4992368;28;20023;-80
2024/01/19 07:59:58;;;;;;;18.80;11.02;;;;;;;;;;4990151;28;20516;-79
2024/01/19 08:02:24;;;;;;;17.45;10.63;;;;;;;;;;4992949;28;20038;-81
2024/01/19 08:04:49;;;;;;;;;;;;;;;;;;4993557;28;20138;-80
2024/01/19 08:07:15;;;;;;;15.80;9.65;;;;;;;;;;4991895;28;20401;-80
2024/01/19 08:09:40;;;;;;;17.17;9.75;;;;;;;;;;4991101;28;20072;-81
2024/01/19 08:12:06;;;;;;;17.65;10.38;;;;;;;;;;4993265;28;20382;-82
2024/01/19 08:14:31;;;;;;;17.20;10.77;;;;;;;;;;4990345;28;20489;-81
2024/01/19 08:16:57;;;;;;;16.25;10.13;;;;;;;;;;4988370;28;20030;-80
2024/01/19 08:19:23;;;;;;;17.00;9.68;;;;;;;;;;4976433;28;20080;-80
2024/01/19 08:21:48;;;;;;;16.08;9.68;;;;;;;;;;4988047;28;20113;-81
2024/01/19 08:24:14;;;;;;;;;;;;;;;;;;4996872;28;20045;-82
2024/01/19 08:26:39;;;;;;;17.15;9.90;;;;;;;;;;4993028;28;19960;-80
2024/01/19 08:29:05;;;;;;;20.42;11.07;;;;;;;;;;4999002;28;20128;-80
2024/01/19 08:31:30;;;;;;;15.75;9.82;;;;;;;;;;5003952;28;20040;-81
2024/01/19 08:33:56;;;;;;;16.60;9.32;;;;;;;;;;5001676;28;20029;-82
2024/01/19 08:36:24;;;;;;;14.63;9.10;;;;;;;;;;5003277;28;20493;-81
2024/01/19 08:38:50;;;;;;;13.93;8.75;;;;;;;;;;5001953;28;20551;-81
2024/01/19 08:41:15;;;;;;;;;;;;;;;;;;5004981;28;20038;-81
2024/01/19 08:43:41;;;;;;;15.85;8.45;;;;;;;;;;5001867;28;20389;-80
2024/01/19 08:46:07;;;;;;;13.35;8.27;;;;;;;;;;4985735;28;20113;-79
2024/01/19 08:48:33;;;;;;;14.48;9.00;;;;;;;;;;4996745;28;20049;-81
2024/01/19 08:50:58;;;;;;;;;;;;;;;;;;4994701;28;20034;-81
2024/01/19 08:53:24;;;;;;;14.52;8.48;;;;;;;;;;4997458;28;19921;-80
2024/01/19 08:55:50;;;;;;;;;;;;;;;;;;4993270;28;20477;-81
2024/01/19 08:58:16;;;;;;;14.80;8.23;;;;;;;;;;4993087;28;19976;-81
2024/01/19 09:00:42;;;;;;;13.43;8.20;;;;;;;;;;4989238;28;20026;-80
2024/01/19 09:03:07;;;;;;;;;;;;;;;;;;4972233;28;20042;-79
2024/01/19 09:05:34;;;;;;;12.80;8.07;;;;;;;;;;4989713;28;19914;-82
2024/01/19 09:08:00;;;;;;;12.27;8.05;;;;;;;;;;4988928;28;20497;-80
2024/01/19 09:10:25;;;;;;;14.45;8.30;;;;;;;;;;4989190;28;20089;-81
2024/01/19 09:12:51;;;;;;;13.18;8.15;;;;;;;;;;4979243;28;20035;-82
2024/01/19 09:15:16;;;;;;;13.90;9.45;;;;;;;;;;4975274;28;20014;-80
2024/01/19 09:17:42;;;;;;;13.30;8.45;;;;;;;;;;4991540;28;20040;-80
2024/01/19 09:20:07;;;;;;;16.90;9.13;;;;;;;;;;4991885;28;20661;-81
2024/01/19 09:22:33;;;;;;;;;;;;;;;;;;4993244;28;20521;-80
2024/01/19 09:24:58;;;;;;;13.20;7.40;;;;;;;;;;4993953;28;20400;-81
2024/01/19 09:27:24;;;;;;;;;;;;;;;;;;4994179;28;20528;-81
2024/01/19 09:29:49;;;;;;;12.43;7.50;;;;;;;;;;4992473;28;19945;-81
2024/01/19 09:32:16;;;;;;;14.32;7.63;;;;;;;;;;4992997;28;20093;-81
2024/01/19 09:34:43;;;;;;;13.55;8.38;;;;;;;;;;4986816;28;20030;-80
2024/01/19 09:37:08;;;;;;;13.30;7.57;;;;;;;;;;4996897;28;20037;-80
2024/01/19 09:39:34;;;;;;;13.07;7.13;;;;;;;;;;4994390;28;20034;-81
2024/01/19 09:42:02;;;;;;;13.90;7.30;;;;;;;;;;4987553;28;20125;-80
2024/01/19 09:44:28;;;;;;;11.50;6.47;;;;;;;;;;4994289;28;20041;-81
2024/01/19 09:46:54;;;;;;;;;;;;;;;;;;4995518;28;20038;-81
2024/01/19 09:49:19;;;;;;;13.63;7.53;;;;;;;;;;4993619;28;20339;-81
2024/01/19 09:52:01;;;;;;;10.52;6.68;;;;;;;;;;4993726;28;20034;-80
2024/01/19 09:54:32;;;;;;;10.52;6.35;;;;;;;;;;4986519;28;20031;-81
2024/01/19 09:56:58;;;;;;;10.35;5.97;;;;;;;;;;4990577;28;20498;-80
2024/01/19 09:59:23;;;;;;;11.82;6.80;;;;;;;;;;4993890;28;20468;-82
2024/01/19 10:01:50;;;;;;;12.00;6.63;;;;;;;;;;4978392;28;20034;-81
2024/01/19 10:04:15;;;;;;;11.07;6.38;;;;;;;;;;4999326;28;20069;-81
2024/01/19 10:06:40;;;;;;;;;;;;;;;;;;4994921;28;20030;-79
2024/01/19 10:09:06;;;;;;;14.50;6.78;;;;;;;;;;4992710;28;19917;-81
2024/01/19 10:11:32;;;;;;;13.10;6.38;;;;;;;;;;4996279;28;20026;-82
2024/01/19 10:13:57;;;;;;;12.18;7.30;;;;;;;;;;4992914;28;20168;-81
2024/01/19 10:16:22;;;;;;;11.25;6.95;;;;;;;;;;4974640;28;20023;-81
2024/01/19 10:18:48;;;;;;;10.02;6.75;;;;;;;;;;4991148;28;20077;-81
2024/01/19 10:21:14;;;;;;;11.93;6.65;;;;;;;;;;4992460;28;20030;-80
2024/01/19 10:23:41;;;;;;;11.07;6.43;;;;;;;;;;4975490;28;20509;-81
2024/01/19 10:26:16;;;;;;;12.98;6.65;;;;;;;;;;4976264;28;20451;-81
2024/01/19 10:28:42;;;;;;;10.55;6.15;;;;;;;;;;4977502;28;20041;-80
2024/01/19 10:31:17;;;;;;;12.50;6.95;;;;;;;;;;4977975;28;20030;-80
2024/01/19 10:33:49;;;;;;;14.38;6.75;;;;;;;;;;4998957;28;20022;-79
2024/01/19 10:36:15;;;;;;;11.45;7.22;;;;;;;;;;4995658;28;20041;-81
2024/01/19 10:38:40;;;;;;;11.15;6.60;;;;;;;;;;4998634;28;20508;-81
2024/01/19 10:41:15;;;;;;;11.65;7.18;;;;;;;;;;4993227;28;20034;-81
2024/01/19 10:43:41;;;;;;;13.27;6.47;;;;;;;;;;4971248;28;20490;-80
2024/01/19 10:46:07;;;;;;;;;;;;;;;;;;4997767;28;20037;-79
2024/01/19 10:48:32;;;;;;;10.88;5.78;;;;;;;;;;4990760;28;20016;-81
2024/01/19 10:50:57;;;;;;;;;;;;;;;;;;4993412;28;20030;-81
2024/01/19 10:53:23;;;;;;;11.07;5.80;;;;;;;;;;4994363;28;19925;-80
2024/01/19 10:55:49;;;;;;;;;;;;;;;;;;4993727;28;20030;-79
2024/01/19 10:58:14;;;;;;;11.88;5.88;;;;;;;;;;4993747;28;19963;-81
2024/01/19 11:00:40;;;;;;;10.95;6.38;;;;;;;;;;4997346;28;20022;-81
2024/01/19 11:03:05;;;;;;;12.18;5.97;;;;;;;;;;4977224;28;20434;-81
2024/01/19 11:05:30;;;;;;;;;;;;;;;;;;4997626;28;20022;-81
2024/01/19 11:07:57;;;;;;;11.27;6.05;;;;;;;;;;4993781;28;20284;-81
2024/01/19 11:10:23;;;;;;;10.27;5.93;;;;;;;;;;4998362;28;20025;-81
2024/01/19 11:12:54;;;;;;;10.20;5.55;;;;;;;;;;4978305;28;20044;-80
2024/01/19 11:15:28;;;;;;;10.52;6.15;;;;;;;;;;4989187;28;20034;-82
2024/01/19 11:18:00;;;;;;;9.65;5.68;;;;;;;;;;4989882;28;20034;-82
2024/01/19 11:20:25;;;;;;;9.63;6.03;;;;;;;;;;4989766;28;20046;-80
2024/01/19 11:22:52;;;;;;;12.23;7.00;;;;;;;;;;4989348;28;20036;-80
2024/01/19 11:25:18;;;;;;;11.30;6.20;;;;;;;;;;4974534;28;20065;-80
2024/01/19 11:27:48;;;;;;;10.85;5.85;;;;;;;;;;4990482;28;20453;-81
2024/01/19 11:30:27;;;;;;;9.25;5.60;;;;;;;;;;4990262;28;20042;-80
2024/01/19 11:32:53;;;;;;;9.48;5.70;;;;;;;;;;4988212;28;20121;-82
2024/01/19 11:35:37;;;;;;;11.50;6.05;;;;;;;;;;4990017;28;20121;-80
2024/01/19 11:38:03;;;;;;;11.18;5.63;;;;;;;;;;4988984;28;20541;-81
2024/01/19 11:40:29;;;;;;;10.43;5.68;;;;;;;;;;4990705;28;20034;-81
2024/01/19 11:42:55;;;;;;;8.90;4.90;;;;;;;;;;4989446;28;20062;-80
2024/01/19 11:45:40;;;;;;;9.70;5.63;;;;;;;;;;4992900;28;20068;-80
2024/01/19 11:48:06;;;;;;;10.18;5.20;;;;;;;;;;4989559;28;20048;-82
2024/01/19 11:50:31;;;;;;;;;;;;;;;;;;4990503;28;20030;-81
2024/01/19 11:52:57;;;;;;;9.90;5.00;;;;;;;;;;4988728;28;19964;-81
2024/01/19 11:55:22;;;;;;;;;;;;;;;;;;4989199;28;20026;-80
2024/01/19 11:57:47;;;;;;;8.73;5.18;;;;;;;;;;5001233;28;19913;-82
2024/01/19 12:00:13;;;;;;;9.13;5.38;;;;;;;;;;4990934;28;20528;-81
2024/01/19 12:02:38;;;;;;;;;;;;;;;;;;4994898;28;20023;-80
2024/01/19 12:05:06;;;;;;;9.57;5.72;;;;;;;;;;4995005;28;19910;-80
2024/01/19 12:07:31;;;;;;;10.18;6.38;;;;;;;;;;4977773;28;20048;-82
2024/01/19 12:10:20;;;;;;;9.02;5.40;;;;;;;;;;4980816;28;20030;-80
2024/01/19 12:12:49;;;;;;;9.68;5.65;;;;;;;;;;4998252;28;20428;-81
2024/01/19 12:15:15;;;;;;;8.85;4.70;;;;;;;;;;4989769;28;20029;-82
2024/01/19 12:17:40;;;;;;;9.75;4.80;;;;;;;;;;4989170;28;20034;-81
2024/01/19 12:20:09;;;;;;;8.27;5.45;;;;;;;;;;4999102;28;20504;-81
2024/01/19 12:22:37;;;;;;;11.73;5.63;;;;;;;;;;4983729;28;20493;-81
2024/01/19 12:25:12;;;;;;;9.68;5.65;;;;;;;;;;4993102;28;20064;-81
2024/01/19 12:27:38;;;;;;;9.05;5.68;;;;;;;;;;5000220;28;20034;-79
2024/01/19 12:30:10;;;;;;;7.93;4.78;;;;;;;;;;5004962;28;20041;-81
2024/01/19 12:32:36;;;;;;;7.82;4.40;;;;;;;;;;4990975;28;20037;-81
2024/01/19 12:35:02;;;;;;;;;;;;;;;;;;4987564;28;20022;-81
2024/01/19 12:37:27;;;;;;;8.02;4.63;;;;;;;;;;5000560;28;20436;-81
2024/01/19 12:39:53;;;;;;;;;;;;;;;;;;5003841;28;20226;-79
2024/01/19 12:42:19;;;;;;;8.45;5.10;;;;;;;;;;5000671;28;19914;-81
2024/01/19 12:44:45;;;;;;;8.18;4.80;;;;;;;;;;5003779;28;20064;-79
2024/01/19 12:47:10;;;;;;;;;;;;;;;;;;4999632;28;20027;-80
2024/01/19 12:49:35;;;;;;;11.00;5.60;;;;;;;;;;5008184;28;19992;-80
2024/01/19 12:52:01;;;;;;;9.85;5.70;;;;;;;;;;5003275;28;20038;-78
2024/01/19 12:54:47;;;;;;;7.68;4.70;;;;;;;;;;5007592;28;20026;-78
2024/01/19 12:57:18;;;;;;;11.57;5.40;;;;;;;;;;5000413;28;20060;-79
2024/01/19 12:59:44;;;;;;;9.70;5.32;;;;;;;;;;5004529;28;20038;-80
2024/01/19 13:02:10;;;;;;;8.68;4.65;;;;;;;;;;4995744;28;20361;-80
2024/01/19 13:04:35;;;;;;;;;;;;;;;;;;5006005;28;20037;-79
2024/01/19 13:07:01;;;;;;;11.57;5.53;;;;;;;;;;5004543;28;19924;-80
2024/01/19 13:09:26;;;;;;;9.80;4.97;;;;;;;;;;5004412;28;20041;-79
2024/01/19 13:11:52;;;;;;;8.43;4.88;;;;;;;;;;5001033;28;20474;-80
2024/01/19 13:14:24;;;;;;;8.18;4.90;;;;;;;;;;4973352;28;20085;-80
2024/01/19 13:16:51;;;;;;;7.75;4.47;;;;;;;;;;4992797;28;20042;-80
2024/01/19 13:19:17;;;;;;;8.10;5.18;;;;;;;;;;4992903;28;20068;-79
2024/01/19 13:21:42;;;;;;;;;;;;;;;;;;4976531;28;20065;-79
2024/01/19 13:24:08;;;;;;;10.13;5.63;;;;;;;;;;4995018;28;19961;-79
2024/01/19 13:26:33;;;;;;;9.50;5.38;;;;;;;;;;4993498;28;20046;-78
2024/01/19 13:28:59;;;;;;;10.60;6.03;;;;;;;;;;4995191;28;20037;-79
2024/01/19 13:31:24;;;;;;;;;;;;;;;;;;4996598;28;20069;-80
2024/01/19 13:33:50;;;;;;;10.98;5.78;;;;;;;;;;4994380;28;19909;-79
2024/01/19 13:36:16;;;;;;;9.60;5.75;;;;;;;;;;4993796;28;20029;-80
2024/01/19 13:38:41;;;;;;;10.00;5.50;;;;;;;;;;4985522;28;20045;-80
2024/01/19 13:41:07;;;;;;;10.13;6.18;;;;;;;;;;5001825;28;20044;-79
2024/01/19 13:43:34;;;;;;;9.93;5.80;;;;;;;;;;4995497;28;20034;-79
2024/01/19 13:45:59;;;;;;;11.18;6.30;;;;;;;;;;5002298;28;20441;-81
2024/01/19 13:48:25;;;;;;;10.85;5.85;;;;;;;;;;5002009;28;20030;-81
2024/01/19 13:50:50;;;;;;;9.48;5.47;;;;;;;;;;4982934;28;20037;-81
2024/01/19 13:53:16;;;;;;;9.43;5.97;;;;;;;;;;5002096;28;20069;-81
2024/01/19 13:55:41;;;;;;;;;;;;;;;;;;4984996;28;20124;-81
2024/01/19 13:58:07;;;;;;;11.32;6.43;;;;;;;;;;5002867;28;19916;-80
2024/01/19 14:00:32;;;;;;;12.32;5.72;;;;;;;;;;4998242;28;20074;-82
2024/01/19 14:02:58;;;;;;;11.90;6.38;;;;;;;;;;4994249;28;20030;-82
2024/01/19 14:05:23;;;;;;;;;;;;;;;;;;4995729;28;20033;-81
2024/01/19 14:07:48;;;;;;;11.23;6.80;;;;;;;;;;5004950;28;20772;-81
2024/01/19 14:10:14;;;;;;;14.88;6.15;;;;;;;;;;5003731;28;20057;-81
2024/01/19 14:12:39;;;;;;;10.20;6.00;;;;;;;;;;5004178;28;20030;-81
2024/01/19 14:15:05;;;;;;;11.90;6.00;;;;;;;;;;4991703;28;20049;-81
2024/01/19 14:17:30;;;;;;;;;;;;;;;;;;4991995;28;20040;-81
2024/01/19 14:19:56;;;;;;;10.77;6.20;;;;;;;;;;4992970;28;19913;-81
2024/01/19 14:22:21;;;;;;;13.35;6.43;;;;;;;;;;5006124;28;20613;-81
2024/01/19 14:24:47;;;;;;;;;;;;;;;;;;4993332;28;20048;-81
2024/01/19 14:27:12;;;;;;;15.20;7.90;;;;;;;;;;4992320;28;20583;-81
2024/01/19 14:29:38;;;;;;;13.50;6.82;;;;;;;;;;4993417;28;20125;-81
2024/01/19 14:32:03;;;;;;;13.48;7.57;;;;;;;;;;4993271;28;20121;-81
2024/01/19 14:34:32;;;;;;;;;;;;;;;;;;4991106;28;20089;-82
2024/01/19 14:36:58;;;;;;;15.02;7.38;;;;;;;;;;4990971;28;19917;-81
2024/01/19 14:39:24;;;;;;;15.65;7.60;;;;;;;;;;4994346;28;20501;-81
2024/01/19 14:41:49;;;;;;;;;;;;;;;;;;4996914;28;20069;-81
2024/01/19 14:44:16;;;;;;;14.85;8.15;;;;;;;;;;4995230;28;20020;-82